Time;durP1;ratioP1;P1;durP2;ratioP2;P2;SDS_P1;SDS_P2;PMS_P1;PMS_P2;Temp;Humidity;BMP_temperature;BMP_pressure;BME280_temperature;BME280_humidity;BME280_pressure;Samples;Min_cycle;Max_cycle;Signal;HPM_P1;HPM_P2
2022/05/07 00:00:00;;;;;;;2.67;0.60;;;14.20;99.90;;;;;;4992772;28;20077;-77
2022/05/07 00:02:28;;;;;;;2.45;0.47;;;14.30;99.90;;;;;;4992623;28;20461;-76
2022/05/07 00:04:55;;;;;;;2.65;0.57;;;14.50;99.90;;;;;;4992662;28;20057;-76
2022/05/07 00:07:23;;;;;;;2.47;0.45;;;14.70;99.90;;;;;;4993999;28;20031;-76
2022/05/07 00:09:50;;;;;;;2.28;0.38;;;14.70;99.90;;;;;;4993930;28;20034;-76
2022/05/07 00:12:17;;;;;;;2.38;0.40;;;14.70;99.90;;;;;;4993941;28;20046;-76
2022/05/07 00:14:45;;;;;;;0.85;0.40;;;14.80;99.90;;;;;;4993931;28;20065;-76
2022/05/07 00:19:57;;;;;;;1.40;0.30;;;15.00;99.90;;;;;;4994016;28;20442;-77
2022/05/07 00:22:24;;;;;;;1.02;0.30;;;15.00;99.90;;;;;;4992433;28;20019;-77
2022/05/07 00:24:52;;;;;;;2.53;0.40;;;15.20;99.90;;;;;;4993710;28;20029;-76
2022/05/07 00:27:20;;;;;;;2.80;0.47;;;15.30;99.90;;;;;;4993745;28;20138;-77
2022/05/07 00:29:47;;;;;;;2.63;0.30;;;15.20;99.90;;;;;;4992496;28;20080;-76
2022/05/07 00:32:15;;;;;;;2.00;0.28;;;15.20;99.90;;;;;;4993729;28;20057;-77
2022/05/07 00:34:42;;;;;;;1.05;0.28;;;15.20;99.90;;;;;;4993566;28;20027;-78
2022/05/07 00:37:10;;;;;;;1.55;0.40;;;15.20;99.90;;;;;;4992208;28;20030;-76
2022/05/07 00:39:37;;;;;;;0.30;0.20;;;15.20;99.90;;;;;;4992625;28;20023;-76
2022/05/07 00:42:05;;;;;;;2.55;0.50;;;15.20;99.90;;;;;;4993746;28;20364;-77
2022/05/07 00:44:34;;;;;;;2.05;0.40;;;15.40;99.90;;;;;;4992097;28;20474;-75
2022/05/07 00:47:20;;;;;;;1.23;0.47;;;15.30;99.90;;;;;;4993518;28;20050;-76
2022/05/07 00:49:54;;;;;;;1.27;0.40;;;15.30;99.90;;;;;;4993604;28;20066;-77
2022/05/07 00:52:22;;;;;;;1.83;0.38;;;15.20;99.90;;;;;;4992263;28;20033;-76
2022/05/07 00:54:49;;;;;;;0.70;0.22;;;15.30;99.90;;;;;;4993732;28;20030;-75
2022/05/07 00:57:17;;;;;;;0.80;0.25;;;15.20;99.90;;;;;;4993402;28;20088;-75
2022/05/07 00:59:45;;;;;;;0.98;0.20;;;15.30;99.90;;;;;;4993369;28;20025;-76
2022/05/07 01:02:12;;;;;;;3.15;0.50;;;15.20;99.90;;;;;;4993520;28;20203;-76
2022/05/07 01:04:39;;;;;;;1.65;0.22;;;15.30;99.90;;;;;;4991853;28;20471;-75
2022/05/07 01:07:07;;;;;;;1.00;0.35;;;15.30;99.90;;;;;;4993442;28;20033;-78
2022/05/07 01:09:36;;;;;;;0.57;0.30;;;15.20;99.90;;;;;;4993347;28;20143;-77
2022/05/07 01:12:04;;;;;;;1.17;0.35;;;15.30;99.90;;;;;;4992514;28;20065;-78
2022/05/07 01:14:31;;;;;;;1.13;0.25;;;15.40;99.90;;;;;;4994366;28;20026;-77
2022/05/07 01:16:59;;;;;;;1.77;0.40;;;15.60;99.90;;;;;;4993684;28;20026;-77
2022/05/07 01:19:26;;;;;;;1.73;0.57;;;15.80;99.90;;;;;;4992041;28;20022;-77
2022/05/07 01:21:53;;;;;;;2.88;0.30;;;15.90;99.90;;;;;;4992347;28;20077;-78
2022/05/07 01:24:21;;;;;;;1.27;0.25;;;15.90;99.90;;;;;;4992158;28;20450;-78
2022/05/07 01:26:48;;;;;;;1.38;0.30;;;15.80;99.90;;;;;;4993509;28;20106;-76
2022/05/07 01:29:15;;;;;;;1.52;0.40;;;15.80;99.90;;;;;;4993848;28;20022;-79
2022/05/07 01:31:43;;;;;;;1.17;0.40;;;15.80;99.90;;;;;;4993418;28;20026;-79
2022/05/07 01:34:10;;;;;;;1.52;0.50;;;15.90;99.90;;;;;;4993445;28;20033;-78
2022/05/07 01:36:38;;;;;;;1.95;0.32;;;15.90;99.90;;;;;;4992980;28;20399;-79
2022/05/07 01:39:05;;;;;;;1.38;0.50;;;15.90;99.90;;;;;;4992119;28;20019;-76
2022/05/07 01:41:33;;;;;;;3.03;0.45;;;15.90;99.90;;;;;;4993129;28;20018;-77
2022/05/07 01:44:00;;;;;;;0.77;0.20;;;16.00;99.90;;;;;;4993175;28;20395;-78
2022/05/07 01:49:13;;;;;;;1.60;0.60;;;15.90;99.90;;;;;;4993297;28;20041;-78
2022/05/07 01:51:40;;;;;;;0.28;0.20;;;16.00;99.90;;;;;;4992981;28;20026;-77
2022/05/07 01:54:08;;;;;;;0.90;0.40;;;15.90;99.90;;;;;;4993237;28;20058;-77
2022/05/07 01:56:35;;;;;;;1.77;0.52;;;15.80;99.90;;;;;;4993773;28;20037;-78
2022/05/07 01:59:02;;;;;;;1.95;0.55;;;16.00;99.90;;;;;;4995304;28;20037;-79
2022/05/07 02:01:30;;;;;;;0.82;0.25;;;16.30;99.90;;;;;;4996405;28;20023;-79
2022/05/07 02:03:57;;;;;;;1.90;0.28;;;16.40;99.90;;;;;;4996600;28;20018;-77
2022/05/07 02:06:24;;;;;;;1.10;0.38;;;16.50;99.90;;;;;;4996797;28;20479;-78
2022/05/07 02:08:53;;;;;;;1.55;0.70;;;16.50;99.90;;;;;;4996414;28;20023;-78
2022/05/07 02:11:21;;;;;;;1.58;0.30;;;16.60;99.90;;;;;;4994909;28;20125;-78
2022/05/07 02:13:48;;;;;;;1.65;0.38;;;16.80;99.90;;;;;;4996247;28;20058;-79
2022/05/07 02:16:15;;;;;;;1.20;0.20;;;17.10;99.90;;;;;;4996123;28;20026;-78
2022/05/07 02:18:43;;;;;;;0.70;0.20;;;17.10;99.90;;;;;;4996174;28;20029;-78
2022/05/07 02:21:10;;;;;;;1.33;0.40;;;17.20;99.90;;;;;;4996019;28;20022;-78
2022/05/07 02:23:37;;;;;;;1.77;0.40;;;17.10;99.90;;;;;;4996097;28;20072;-78
2022/05/07 02:26:05;;;;;;;1.45;0.40;;;17.30;99.90;;;;;;4996213;28;20049;-79
2022/05/07 02:28:32;;;;;;;1.65;0.30;;;17.40;99.90;;;;;;4996010;28;20475;-78
2022/05/07 02:30:59;;;;;;;1.02;0.30;;;17.40;99.90;;;;;;4997191;28;20026;-81
2022/05/07 02:33:27;;;;;;;1.35;0.35;;;17.20;99.90;;;;;;4998373;28;20076;-78
2022/05/07 02:35:54;;;;;;;0.45;0.30;;;17.20;99.90;;;;;;4997323;28;20026;-79
2022/05/07 02:38:21;;;;;;;0.77;0.20;;;17.30;99.90;;;;;;4998194;28;20496;-78
2022/05/07 02:43:34;;;;;;;1.52;0.28;;;17.40;99.90;;;;;;4996048;28;20037;-78
2022/05/07 02:46:01;;;;;;;0.75;0.40;;;17.40;99.90;;;;;;4994329;28;20468;-77
2022/05/07 02:48:28;;;;;;;1.98;0.55;;;17.60;99.90;;;;;;4994277;28;20022;-77
2022/05/07 02:50:56;;;;;;;0.25;0.20;;;17.70;99.90;;;;;;4995597;28;20026;-76
2022/05/07 02:53:24;;;;;;;1.35;0.47;;;17.90;99.90;;;;;;4994241;28;20460;-77
2022/05/07 02:55:51;;;;;;;0.80;0.20;;;17.70;99.60;;;;;;4995414;28;20101;-77
2022/05/07 02:58:18;;;;;;;0.82;0.30;;;17.70;99.90;;;;;;4995434;28;20054;-77
2022/05/07 03:00:48;;;;;;;0.82;0.30;;;17.90;99.90;;;;;;4995407;28;20081;-77
2022/05/07 03:03:15;;;;;;;1.50;0.38;;;17.80;99.90;;;;;;4995287;28;20019;-77
2022/05/07 03:05:42;;;;;;;3.80;0.63;;;17.80;99.70;;;;;;4994984;28;20074;-76
2022/05/07 03:08:10;;;;;;;0.55;0.28;;;17.90;99.90;;;;;;4993370;28;20125;-77
2022/05/07 03:10:37;;;;;;;3.85;0.90;;;17.90;99.20;;;;;;4995117;28;20432;-76
2022/05/07 03:13:04;;;;;;;1.35;0.47;;;18.10;99.90;;;;;;4994955;28;20057;-77
2022/05/07 03:15:32;;;;;;;1.02;0.38;;;18.40;99.70;;;;;;4994993;28;20019;-76
2022/05/07 03:17:59;;;;;;;1.90;0.80;;;18.50;99.00;;;;;;4994955;28;20069;-77
2022/05/07 03:20:27;;;;;;;2.03;0.80;;;18.80;99.10;;;;;;4993648;28;20025;-76
2022/05/07 03:22:54;;;;;;;1.20;0.50;;;18.80;99.40;;;;;;4995234;28;20022;-76
2022/05/07 03:25:21;;;;;;;1.85;0.82;;;18.80;98.70;;;;;;4993552;28;20032;-76
2022/05/07 03:27:48;;;;;;;0.77;0.32;;;18.70;98.80;;;;;;4994823;28;20101;-76
2022/05/07 03:30:16;;;;;;;1.27;0.40;;;18.80;98.20;;;;;;4994755;28;20146;-75
2022/05/07 03:32:43;;;;;;;2.67;0.50;;;18.90;98.70;;;;;;4993371;28;20029;-75
2022/05/07 03:35:11;;;;;;;1.02;0.32;;;19.10;98.30;;;;;;4994672;28;20030;-75
2022/05/07 03:37:38;;;;;;;1.38;0.40;;;19.20;97.90;;;;;;4993196;28;20372;-75
2022/05/07 03:40:06;;;;;;;1.10;0.47;;;19.30;97.60;;;;;;4994599;28;20034;-76
2022/05/07 03:42:33;;;;;;;1.00;0.30;;;19.40;98.30;;;;;;4994437;28;20022;-76
2022/05/07 03:45:01;;;;;;;0.70;0.50;;;19.30;97.10;;;;;;4993171;28;20143;-76
2022/05/07 03:47:29;;;;;;;1.15;0.32;;;19.10;97.40;;;;;;4993072;28;20057;-76
2022/05/07 03:49:56;;;;;;;2.63;0.40;;;19.40;97.60;;;;;;4993098;28;20483;-76
2022/05/07 03:55:08;;;;;;;0.45;0.25;;;19.40;97.30;;;;;;4994517;28;20037;-77
2022/05/07 03:57:36;;;;;;;1.67;0.40;;;19.10;97.00;;;;;;4992913;28;20161;-77
2022/05/07 04:00:04;;;;;;;1.17;0.40;;;19.30;97.70;;;;;;4992931;28;20019;-77
2022/05/07 04:02:32;;;;;;;1.73;0.40;;;19.50;97.10;;;;;;4994122;28;20022;-76
2022/05/07 04:05:00;;;;;;;2.25;0.50;;;19.40;97.60;;;;;;4992573;28;20458;-77
2022/05/07 04:07:27;;;;;;;0.90;0.30;;;19.30;96.90;;;;;;4992794;28;20030;-77
2022/05/07 04:09:55;;;;;;;1.35;0.30;;;19.30;97.40;;;;;;4994035;28;20085;-76
2022/05/07 04:12:23;;;;;;;1.15;0.40;;;19.20;97.30;;;;;;4994298;28;20027;-77
2022/05/07 04:14:50;;;;;;;0.73;0.57;;;19.30;97.70;;;;;;4992643;28;20030;-76
2022/05/07 04:17:17;;;;;;;0.60;0.30;;;19.30;97.10;;;;;;4993927;28;20038;-76
2022/05/07 04:19:45;;;;;;;1.25;0.50;;;19.30;97.10;;;;;;4993188;28;20022;-76
2022/05/07 04:22:12;;;;;;;0.52;0.20;;;19.20;96.70;;;;;;4993816;28;20101;-76
2022/05/07 04:24:39;;;;;;;2.15;0.70;;;19.20;96.90;;;;;;4993868;28;20451;-76
2022/05/07 04:27:08;;;;;;;2.92;0.50;;;19.50;97.00;;;;;;4992621;28;20026;-76
2022/05/07 04:29:35;;;;;;;2.25;0.60;;;19.60;97.20;;;;;;4992550;28;20029;-76
2022/05/07 04:32:03;;;;;;;1.58;0.50;;;19.60;98.20;;;;;;4992504;28;20117;-76
2022/05/07 04:34:30;;;;;;;1.95;0.50;;;19.60;97.40;;;;;;4993670;28;20030;-76
2022/05/07 04:36:58;;;;;;;0.88;0.40;;;19.40;97.30;;;;;;4993705;28;20499;-77
2022/05/07 04:39:25;;;;;;;0.55;0.25;;;19.50;97.10;;;;;;4993601;28;20050;-77
2022/05/07 04:41:52;;;;;;;0.63;0.40;;;19.50;96.40;;;;;;4992293;28;20160;-77
2022/05/07 04:44:20;;;;;;;1.02;0.30;;;19.50;96.90;;;;;;4993437;28;20043;-76
2022/05/07 04:46:47;;;;;;;2.03;0.30;;;19.50;97.00;;;;;;4993568;28;20108;-77
2022/05/07 04:49:19;;;;;;;0.35;0.30;;;19.40;96.70;;;;;;4993388;28;20050;-76
2022/05/07 04:51:50;;;;;;;1.10;0.20;;;19.40;96.50;;;;;;4993614;28;20018;-76
2022/05/07 04:54:19;;;;;;;;;;;19.30;96.50;;;;;;4992667;28;20054;-76
2022/05/07 04:56:51;;;;;;;0.70;0.30;;;19.10;97.60;;;;;;4992012;28;19916;-76
2022/05/07 04:59:19;;;;;;;0.20;0.17;;;19.10;97.80;;;;;;4993537;28;20053;-76
2022/05/07 05:01:47;;;;;;;1.35;0.38;;;19.00;96.80;;;;;;4993768;28;20094;-76
2022/05/07 05:04:15;;;;;;;1.02;0.25;;;19.00;97.30;;;;;;4992873;28;20446;-77
2022/05/07 05:06:43;;;;;;;1.77;0.40;;;18.90;97.40;;;;;;4991963;28;20052;-77
2022/05/07 05:09:12;;;;;;;1.38;0.55;;;18.90;97.20;;;;;;4991884;28;20475;-76
2022/05/07 05:11:41;;;;;;;1.90;0.30;;;18.90;97.00;;;;;;4993214;28;20161;-76
2022/05/07 05:16:54;;;;;;;0.93;0.30;;;19.00;96.90;;;;;;4993118;28;20399;-75
2022/05/07 05:19:21;;;;;;;0.70;0.22;;;19.00;96.90;;;;;;4991820;28;20026;-76
2022/05/07 05:21:48;;;;;;;1.73;0.30;;;19.00;95.90;;;;;;4991834;28;20022;-76
2022/05/07 05:24:16;;;;;;;4.43;0.70;;;19.10;96.40;;;;;;4991737;28;20018;-76
2022/05/07 05:26:43;;;;;;;0.77;0.30;;;19.10;95.30;;;;;;4991557;28;20121;-76
2022/05/07 05:29:10;;;;;;;0.65;0.10;;;19.00;94.70;;;;;;4991655;28;20034;-76
2022/05/07 05:31:38;;;;;;;0.82;0.22;;;18.90;94.40;;;;;;4996599;28;20101;-76
2022/05/07 05:34:05;;;;;;;1.23;0.30;;;18.80;94.20;;;;;;4995416;28;20026;-76
2022/05/07 05:36:32;;;;;;;0.60;0.40;;;18.70;94.10;;;;;;4996704;28;20022;-76
2022/05/07 05:39:00;;;;;;;0.43;0.20;;;18.80;94.60;;;;;;4996543;28;20156;-76
2022/05/07 05:41:27;;;;;;;2.22;0.32;;;18.70;94.10;;;;;;4995387;28;20467;-75
2022/05/07 05:43:55;;;;;;;1.33;0.40;;;18.70;94.30;;;;;;4995483;28;20117;-75
2022/05/07 05:46:22;;;;;;;1.38;0.30;;;18.60;94.40;;;;;;4996620;28;20102;-74
2022/05/07 05:48:49;;;;;;;1.00;0.20;;;18.60;94.20;;;;;;4995190;28;20450;-76
2022/05/07 05:51:17;;;;;;;0.57;0.32;;;18.60;93.90;;;;;;4995162;28;20022;-76
2022/05/07 05:53:44;;;;;;;0.82;0.30;;;18.50;94.20;;;;;;4996561;28;20105;-77
2022/05/07 05:56:11;;;;;;;0.40;0.20;;;18.40;94.80;;;;;;4996147;28;20489;-76
2022/05/07 05:58:38;;;;;;;1.23;0.28;;;18.40;95.20;;;;;;4996360;28;20014;-76
2022/05/07 06:01:08;;;;;;;0.85;0.30;;;18.40;95.00;;;;;;4994993;28;20033;-76
2022/05/07 06:03:36;;;;;;;0.93;0.30;;;18.30;95.10;;;;;;4995620;28;20068;-76
2022/05/07 06:06:03;;;;;;;1.08;0.20;;;18.30;94.90;;;;;;4995987;28;20049;-75
2022/05/07 06:08:31;;;;;;;1.90;0.30;;;18.20;94.80;;;;;;4995046;28;20034;-76
2022/05/07 06:10:59;;;;;;;0.80;0.28;;;18.20;94.90;;;;;;4996223;28;20392;-76
2022/05/07 06:13:26;;;;;;;2.47;0.22;;;18.20;94.90;;;;;;4996235;28;20050;-76
2022/05/07 06:15:54;;;;;;;0.25;0.13;;;18.20;94.70;;;;;;4996466;28;20501;-77
2022/05/07 06:18:22;;;;;;;1.08;0.30;;;18.10;94.90;;;;;;4978533;28;20026;-76
2022/05/07 06:20:53;;;;;;;0.63;0.20;;;18.10;94.90;;;;;;4994803;28;20054;-77
2022/05/07 06:23:20;;;;;;;1.08;0.30;;;18.00;94.90;;;;;;4995974;28;20030;-77
2022/05/07 06:28:33;;;;;;;0.43;0.20;;;17.90;95.40;;;;;;4996219;28;20033;-76
2022/05/07 06:31:00;;;;;;;1.50;0.20;;;17.80;95.90;;;;;;4996202;28;20089;-76
2022/05/07 06:33:28;;;;;;;0.73;0.20;;;17.70;96.00;;;;;;4995860;28;20061;-77
2022/05/07 06:35:56;;;;;;;2.45;0.40;;;17.60;95.60;;;;;;4994605;28;20117;-76
2022/05/07 06:38:23;;;;;;;0.52;0.40;;;17.50;95.80;;;;;;4994349;28;20026;-76
2022/05/07 06:40:51;;;;;;;0.88;0.20;;;17.50;95.40;;;;;;4994090;28;20375;-77
2022/05/07 06:43:18;;;;;;;1.88;0.50;;;17.50;95.30;;;;;;4994078;28;20080;-77
2022/05/07 06:45:45;;;;;;;0.73;0.30;;;17.40;95.10;;;;;;4994386;28;20479;-76
2022/05/07 06:48:13;;;;;;;0.88;0.35;;;17.40;94.90;;;;;;4995537;28;20037;-77
2022/05/07 06:50:40;;;;;;;0.40;0.20;;;17.20;95.60;;;;;;4994411;28;20030;-77
2022/05/07 06:53:07;;;;;;;0.73;0.40;;;17.10;96.30;;;;;;4994256;28;20391;-76
2022/05/07 06:55:54;;;;;;;0.60;0.52;;;16.90;96.90;;;;;;4994291;28;20022;-78
2022/05/07 06:58:23;;;;;;;0.68;0.40;;;16.90;96.90;;;;;;4994094;28;20547;-76
2022/05/07 07:00:50;;;;;;;2.40;0.70;;;16.90;97.30;;;;;;4994216;28;20113;-77
2022/05/07 07:03:18;;;;;;;1.08;0.52;;;16.70;97.60;;;;;;4995282;28;20475;-76
2022/05/07 07:05:46;;;;;;;0.80;0.40;;;16.70;97.80;;;;;;4995046;28;20042;-75
2022/05/07 07:08:13;;;;;;;1.88;0.40;;;16.60;97.50;;;;;;4995225;28;20540;-75
2022/05/07 07:10:41;;;;;;;1.25;0.40;;;16.50;97.90;;;;;;4994070;28;20030;-75
2022/05/07 07:13:09;;;;;;;2.97;0.40;;;16.50;97.90;;;;;;4993865;28;20176;-75
2022/05/07 07:15:40;;;;;;;0.70;0.40;;;16.40;98.30;;;;;;4995089;28;20073;-75
2022/05/07 07:18:11;;;;;;;0.93;0.43;;;16.30;98.20;;;;;;4994923;28;20400;-76
2022/05/07 07:20:41;;;;;;;1.40;0.55;;;16.10;99.00;;;;;;4995039;28;20018;-76
2022/05/07 07:23:13;;;;;;;0.82;0.50;;;16.00;98.90;;;;;;4994967;28;20471;-75
2022/05/07 07:25:42;;;;;;;1.88;0.40;;;15.90;98.70;;;;;;4995060;28;20110;-75
2022/05/07 07:28:11;;;;;;;3.20;0.45;;;15.90;98.80;;;;;;4993556;28;20096;-76
2022/05/07 07:30:38;;;;;;;1.08;0.32;;;16.00;98.60;;;;;;4993610;28;20029;-76
2022/05/07 07:33:07;;;;;;;0.45;0.30;;;16.00;98.70;;;;;;4993478;28;20461;-75
2022/05/07 07:35:34;;;;;;;1.10;0.45;;;15.90;98.70;;;;;;4993525;28;20376;-75
2022/05/07 07:38:01;;;;;;;1.63;0.70;;;15.90;99.70;;;;;;4994654;28;20033;-77
2022/05/07 07:40:29;;;;;;;1.65;0.77;;;15.70;99.60;;;;;;4993339;28;20387;-75
2022/05/07 07:42:56;;;;;;;2.85;0.68;;;15.70;99.40;;;;;;4993197;28;20061;-75
2022/05/07 07:48:10;;;;;;;1.75;0.60;;;15.70;98.70;;;;;;4994939;28;20025;-75
2022/05/07 07:50:38;;;;;;;0.98;0.40;;;15.70;98.30;;;;;;4993247;28;20026;-74
2022/05/07 07:53:10;;;;;;;0.95;0.60;;;15.60;98.20;;;;;;4992304;28;20470;-75
2022/05/07 07:55:38;;;;;;;1.77;0.50;;;15.60;98.20;;;;;;4994592;28;20109;-75
2022/05/07 07:58:08;;;;;;;3.42;0.77;;;15.50;98.50;;;;;;4993002;28;20030;-74
2022/05/07 08:00:36;;;;;;;1.45;0.55;;;15.40;98.10;;;;;;4994876;28;20026;-75
2022/05/07 08:03:09;;;;;;;1.08;0.47;;;15.50;97.90;;;;;;4994248;28;20433;-74
2022/05/07 08:05:38;;;;;;;0.75;0.50;;;15.40;98.30;;;;;;4992710;28;20458;-75
2022/05/07 08:13:38;;;;;;;3.58;1.20;;;15.30;98.60;;;;;;4994690;28;20033;-75
2022/05/07 08:16:07;;;;;;;2.08;1.05;;;15.20;97.80;;;;;;4994149;28;20026;-75
2022/05/07 08:18:35;;;;;;;2.70;1.20;;;15.20;98.10;;;;;;4993865;28;20146;-73
2022/05/07 08:21:03;;;;;;;2.60;1.20;;;15.10;97.90;;;;;;4992773;28;20023;-74
2022/05/07 08:23:31;;;;;;;1.95;1.20;;;15.00;98.30;;;;;;4992638;28;20033;-75
2022/05/07 08:25:58;;;;;;;2.78;1.20;;;14.90;98.80;;;;;;4992676;28;20018;-74
2022/05/07 08:28:26;;;;;;;3.17;2.35;;;14.80;98.50;;;;;;4992662;28;20033;-74
2022/05/07 08:30:53;;;;;;;2.92;1.92;;;14.70;98.70;;;;;;4993879;28;20026;-75
2022/05/07 08:33:21;;;;;;;2.97;1.30;;;14.70;98.30;;;;;;4992547;28;20023;-74
2022/05/07 08:35:48;;;;;;;2.70;0.93;;;14.70;98.50;;;;;;4993800;28;20394;-74
2022/05/07 08:38:16;;;;;;;4.18;2.17;;;14.60;98.40;;;;;;4992310;28;20037;-73
2022/05/07 08:40:44;;;;;;;4.88;2.92;;;14.60;98.90;;;;;;4993761;28;20101;-74
2022/05/07 08:43:11;;;;;;;2.55;1.50;;;14.40;99.60;;;;;;4992431;28;20026;-74
2022/05/07 08:45:42;;;;;;;2.75;1.45;;;14.40;98.90;;;;;;4993738;28;20022;-74
2022/05/07 08:48:09;;;;;;;;;;;14.40;99.10;;;;;;4992844;28;20432;-73
2022/05/07 08:50:38;;;;;;;5.45;3.47;;;14.40;98.90;;;;;;4992366;28;19912;-74
2022/05/07 08:53:06;;;;;;;3.45;1.90;;;14.40;99.10;;;;;;4993648;28;20113;-74
2022/05/07 08:55:34;;;;;;;2.33;1.42;;;14.40;99.00;;;;;;4992276;28;20041;-74
2022/05/07 08:58:01;;;;;;;3.35;1.60;;;14.40;99.00;;;;;;4992507;28;20031;-74
2022/05/07 09:00:29;;;;;;;2.10;1.38;;;14.30;99.50;;;;;;4992298;28;20026;-74
2022/05/07 09:02:59;;;;;;;3.17;1.10;;;14.30;99.50;;;;;;4993535;28;20031;-73
2022/05/07 09:05:35;;;;;;;3.83;1.30;;;14.20;99.90;;;;;;4995434;28;20436;-74
2022/05/07 09:08:03;;;;;;;2.75;0.80;;;14.10;99.90;;;;;;4997539;28;20387;-74
2022/05/07 09:10:36;;;;;;;1.50;0.80;;;14.10;99.40;;;;;;4996264;28;20082;-73
2022/05/07 09:13:11;;;;;;;1.48;0.70;;;14.10;99.70;;;;;;4996153;28;20023;-72
2022/05/07 09:15:54;;;;;;;2.22;0.77;;;14.10;99.60;;;;;;4996129;28;20033;-75
2022/05/07 09:18:22;;;;;;;2.42;0.98;;;14.10;99.70;;;;;;4997215;28;20105;-75
2022/05/07 09:21:19;;;;;;;1.10;0.75;;;14.10;99.60;;;;;;4996034;28;20076;-73
2022/05/07 09:24:06;;;;;;;1.58;0.80;;;14.20;99.30;;;;;;4997318;28;20382;-73
2022/05/07 09:26:43;;;;;;;1.35;0.88;;;14.10;99.40;;;;;;4997223;28;20097;-74
2022/05/07 09:29:15;;;;;;;2.22;0.75;;;14.30;99.10;;;;;;4997227;28;20018;-74
2022/05/07 09:31:44;;;;;;;2.38;0.82;;;14.20;99.40;;;;;;4995847;28;20061;-75
2022/05/07 09:37:25;;;;;;;3.22;0.95;;;14.20;99.40;;;;;;4997497;28;20083;-74
2022/05/07 09:39:53;;;;;;;2.33;0.70;;;14.20;99.30;;;;;;4995763;28;20018;-75
2022/05/07 09:42:22;;;;;;;1.23;0.50;;;14.20;99.10;;;;;;4995612;28;20033;-73
2022/05/07 09:44:50;;;;;;;2.60;0.70;;;13.90;99.00;;;;;;4995585;28;20022;-75
2022/05/07 09:47:18;;;;;;;2.35;0.93;;;14.20;99.20;;;;;;4995519;28;20023;-77
2022/05/07 09:52:33;;;;;;;2.83;0.80;;;14.10;99.30;;;;;;4997535;28;20037;-75
2022/05/07 09:57:46;;;;;;;2.30;1.10;;;14.00;99.40;;;;;;4997015;28;20513;-73
2022/05/07 10:00:19;;;;;;;2.53;1.30;;;13.90;99.80;;;;;;4996576;28;20076;-73
2022/05/07 10:03:41;;;;;;;2.45;0.70;;;13.90;99.90;;;;;;4996594;28;20022;-74
2022/05/07 10:06:17;;;;;;;1.75;0.95;;;13.90;99.90;;;;;;4939178;29;20050;-76
2022/05/07 10:09:25;;;;;;;1.63;0.80;;;13.90;99.90;;;;;;4996520;28;20019;-76
2022/05/07 10:11:57;;;;;;;2.03;0.70;;;13.80;99.90;;;;;;4976523;28;20030;-75
2022/05/07 10:14:30;;;;;;;1.55;0.70;;;13.80;99.90;;;;;;4996152;28;20019;-75
2022/05/07 10:16:58;;;;;;;1.35;0.80;;;13.70;99.90;;;;;;4995173;28;20104;-75
2022/05/07 10:19:42;;;;;;;2.58;0.90;;;13.60;99.90;;;;;;4996043;28;20019;-75
2022/05/07 10:22:23;;;;;;;2.45;0.98;;;13.70;99.90;;;;;;4996086;28;20114;-73
2022/05/07 10:25:07;;;;;;;2.67;1.15;;;13.60;99.90;;;;;;4995815;28;20386;-73
2022/05/07 10:27:45;;;;;;;2.25;1.00;;;13.60;99.90;;;;;;4994693;28;20109;-74
2022/05/07 10:30:20;;;;;;;1.83;0.82;;;13.50;99.90;;;;;;4996250;28;20022;-75
2022/05/07 10:32:58;;;;;;;1.88;0.60;;;13.50;99.90;;;;;;4994739;28;20553;-76
2022/05/07 10:35:45;;;;;;;1.92;1.10;;;13.40;99.90;;;;;;4994720;28;20030;-74
2022/05/07 10:38:15;;;;;;;2.30;1.10;;;13.40;99.90;;;;;;4994432;28;20026;-76
2022/05/07 10:41:22;;;;;;;3.03;1.10;;;13.20;99.90;;;;;;4994354;28;20030;-76
2022/05/07 10:44:02;;;;;;;1.45;0.80;;;13.10;99.90;;;;;;4994850;28;20113;-76
2022/05/07 10:46:42;;;;;;;3.17;0.63;;;13.00;99.90;;;;;;4994444;28;20022;-76
2022/05/07 10:49:09;;;;;;;1.07;0.70;;;13.00;99.90;;;;;;4994483;28;20027;-76
2022/05/07 10:51:38;;;;;;;2.28;1.02;;;12.90;99.90;;;;;;4995726;28;20018;-76
2022/05/07 10:54:21;;;;;;;2.33;1.00;;;12.70;99.90;;;;;;4994295;28;20050;-75
2022/05/07 10:56:54;;;;;;;2.75;1.00;;;12.60;99.90;;;;;;4995970;28;20030;-75
2022/05/07 10:59:23;;;;;;;2.33;1.10;;;12.70;99.90;;;;;;4995476;28;20022;-75
2022/05/07 11:01:51;;;;;;;2.78;0.88;;;12.70;99.90;;;;;;4995718;28;20023;-74
2022/05/07 11:04:19;;;;;;;2.45;0.95;;;12.70;99.90;;;;;;4995345;28;20399;-75
2022/05/07 11:06:52;;;;;;;3.08;1.00;;;12.70;99.90;;;;;;4995945;28;20031;-75
2022/05/07 11:09:24;;;;;;;1.35;0.73;;;12.70;99.90;;;;;;4993991;28;20023;-74
2022/05/07 11:11:58;;;;;;;1.98;0.98;;;12.70;99.90;;;;;;4995290;28;20056;-75
2022/05/07 11:14:27;;;;;;;1.50;0.93;;;12.60;99.90;;;;;;4994323;28;20026;-74
2022/05/07 11:16:56;;;;;;;2.45;0.90;;;12.60;99.90;;;;;;4995095;28;20105;-74
2022/05/07 11:19:28;;;;;;;2.65;0.90;;;12.40;99.90;;;;;;4995113;28;20022;-74
2022/05/07 11:21:57;;;;;;;1.60;0.70;;;12.40;99.90;;;;;;4995067;28;20369;-74
2022/05/07 11:24:25;;;;;;;1.50;0.82;;;12.20;99.90;;;;;;4993773;28;20058;-74
2022/05/07 11:26:53;;;;;;;1.55;1.00;;;12.20;99.90;;;;;;4995130;28;20391;-74
2022/05/07 11:29:21;;;;;;;2.22;0.90;;;12.30;99.90;;;;;;4994641;28;20022;-74
2022/05/07 11:31:59;;;;;;;2.65;1.02;;;12.30;99.90;;;;;;4995063;28;20026;-74
2022/05/07 11:34:33;;;;;;;2.80;1.10;;;12.40;99.90;;;;;;4995324;28;20026;-74
2022/05/07 11:37:11;;;;;;;3.00;2.40;;;12.40;99.90;;;;;;4994695;28;20027;-74
2022/05/07 11:39:54;;;;;;;2.30;2.10;;;12.40;99.90;;;;;;4993545;28;20074;-74
2022/05/07 11:42:37;;;;;;;1.38;1.17;;;12.30;99.90;;;;;;4993350;28;20023;-74
2022/05/07 11:45:26;;;;;;;2.35;1.40;;;12.30;99.90;;;;;;4994647;28;20023;-74
2022/05/07 11:47:55;;;;;;;2.85;1.17;;;12.30;99.90;;;;;;4993273;28;20117;-74
2022/05/07 11:50:33;;;;;;;2.25;1.10;;;12.30;99.90;;;;;;4994379;28;20390;-74
2022/05/07 11:53:13;;;;;;;2.20;1.30;;;12.30;99.90;;;;;;4993233;28;20428;-74
2022/05/07 11:55:43;;;;;;;1.90;1.10;;;12.20;99.90;;;;;;4994452;28;20528;-74
2022/05/07 11:58:20;;;;;;;2.92;0.90;;;12.20;99.90;;;;;;4993015;28;20041;-74
2022/05/07 12:00:50;;;;;;;1.65;1.17;;;12.10;99.90;;;;;;4993031;28;20475;-74
2022/05/07 12:03:23;;;;;;;2.47;1.02;;;12.10;99.90;;;;;;4993040;28;20022;-74
2022/05/07 12:05:52;;;;;;;1.98;1.15;;;12.10;99.90;;;;;;4993996;28;20502;-74
2022/05/07 12:08:33;;;;;;;2.58;0.90;;;12.10;99.90;;;;;;4992895;28;20129;-74
2022/05/07 12:11:02;;;;;;;1.08;0.88;;;12.10;99.90;;;;;;4994185;28;20026;-74
2022/05/07 12:13:30;;;;;;;3.35;1.08;;;12.10;99.90;;;;;;4993143;28;20066;-73
2022/05/07 12:18:49;;;;;;;4.20;1.30;;;12.00;99.90;;;;;;4994406;28;20553;-73
2022/05/07 12:21:17;;;;;;;2.22;1.00;;;12.10;99.90;;;;;;4993988;28;20026;-75
2022/05/07 12:32:03;;;;;;;2.33;1.00;;;12.20;99.90;;;;;;4994184;28;20046;-75
2022/05/07 12:34:30;;;;;;;2.63;1.10;;;12.20;99.90;;;;;;4992480;28;20402;-75
2022/05/07 12:36:58;;;;;;;1.95;1.10;;;12.20;99.90;;;;;;4993709;28;20030;-76
2022/05/07 12:39:25;;;;;;;2.00;1.00;;;12.30;99.90;;;;;;4992137;28;20027;-74
2022/05/07 12:41:53;;;;;;;4.13;1.65;;;12.20;99.90;;;;;;4992847;28;20108;-75
2022/05/07 12:44:21;;;;;;;2.20;1.17;;;12.20;99.90;;;;;;4993018;28;20062;-76
2022/05/07 12:46:48;;;;;;;1.77;1.00;;;12.20;99.90;;;;;;4993235;28;20071;-76
2022/05/07 12:49:16;;;;;;;2.03;1.00;;;12.20;99.90;;;;;;4994207;28;20542;-77
2022/05/07 12:51:43;;;;;;;2.05;0.90;;;12.30;99.90;;;;;;4992800;28;20161;-76
2022/05/07 12:54:10;;;;;;;1.95;1.10;;;12.30;99.90;;;;;;4994613;28;20050;-77
2022/05/07 12:56:37;;;;;;;1.88;1.13;;;12.30;99.90;;;;;;4994814;28;20458;-75
2022/05/07 12:59:05;;;;;;;2.20;0.98;;;12.30;99.90;;;;;;4993081;28;20030;-74
2022/05/07 13:01:32;;;;;;;1.80;1.20;;;12.30;99.90;;;;;;4994237;28;20022;-74
2022/05/07 13:04:00;;;;;;;3.38;1.27;;;12.30;99.90;;;;;;4992166;28;20030;-73
2022/05/07 13:06:28;;;;;;;2.00;1.38;;;12.20;99.90;;;;;;4993610;28;20043;-73
2022/05/07 13:08:58;;;;;;;2.28;1.17;;;12.20;99.90;;;;;;4993475;28;20369;-74
2022/05/07 13:11:29;;;;;;;2.60;1.27;;;12.00;99.90;;;;;;4993431;28;20454;-75
2022/05/07 13:13:56;;;;;;;2.75;1.35;;;12.00;99.90;;;;;;4992198;28;20026;-75
2022/05/07 13:16:24;;;;;;;2.50;1.00;;;11.90;99.90;;;;;;4993382;28;20029;-74
2022/05/07 13:18:51;;;;;;;1.88;1.15;;;11.80;99.90;;;;;;4993369;28;20109;-75
2022/05/07 13:21:18;;;;;;;2.08;1.10;;;11.80;99.90;;;;;;4992030;28;20022;-74
2022/05/07 13:23:46;;;;;;;2.80;1.23;;;11.80;99.90;;;;;;4991960;28;20538;-75
2022/05/07 13:26:13;;;;;;;2.58;1.27;;;11.70;99.90;;;;;;4992035;28;20061;-75
2022/05/07 13:28:40;;;;;;;1.67;1.10;;;11.70;99.90;;;;;;4992043;28;20030;-75
2022/05/07 13:31:08;;;;;;;4.00;1.20;;;11.70;99.90;;;;;;4992042;28;20485;-77
2022/05/07 13:33:36;;;;;;;1.70;1.13;;;11.70;99.90;;;;;;4993534;28;20058;-75
2022/05/07 13:36:04;;;;;;;3.42;1.00;;;11.70;99.90;;;;;;4993263;28;20022;-74
2022/05/07 13:38:31;;;;;;;2.22;1.13;;;11.60;99.90;;;;;;4991774;28;20033;-75
2022/05/07 13:41:00;;;;;;;2.03;0.85;;;11.60;99.90;;;;;;4991909;28;20018;-76
2022/05/07 13:43:30;;;;;;;1.77;0.73;;;11.60;99.90;;;;;;4993150;28;20018;-76